sensor_id;sensor_type;location;lat;lon;timestamp;P1;durP1;ratioP1;P2;durP2;ratioP2
74471;SDS011;62920;53.572;10.050;2023-03-04T00:02:02;11.10;;;2.33;;
74471;SDS011;62920;53.572;10.050;2023-03-04T00:04:28;9.32;;;1.80;;
74471;SDS011;62920;53.572;10.050;2023-03-04T00:06:53;11.38;;;1.92;;
74471;SDS011;62920;53.572;10.050;2023-03-04T00:09:18;14.10;;;2.30;;
74471;SDS011;62920;53.572;10.050;2023-03-04T00:11:44;10.82;;;1.50;;
74471;SDS011;62920;53.572;10.050;2023-03-04T00:14:09;7.45;;;1.85;;
74471;SDS011;62920;53.572;10.050;2023-03-04T00:16:34;6.82;;;1.10;;
74471;SDS011;62920;53.572;10.050;2023-03-04T00:19:00;11.95;;;1.50;;
74471;SDS011;62920;53.572;10.050;2023-03-04T00:21:25;6.68;;;1.75;;
74471;SDS011;62920;53.572;10.050;2023-03-04T00:23:51;7.00;;;1.63;;
74471;SDS011;62920;53.572;10.050;2023-03-04T00:26:16;9.15;;;1.60;;
74471;SDS011;62920;53.572;10.050;2023-03-04T00:28:42;9.65;;;1.70;;
74471;SDS011;62920;53.572;10.050;2023-03-04T00:31:07;9.38;;;1.65;;
74471;SDS011;62920;53.572;10.050;2023-03-04T00:33:33;11.23;;;1.90;;
74471;SDS011;62920;53.572;10.050;2023-03-04T00:35:59;12.30;;;1.48;;
74471;SDS011;62920;53.572;10.050;2023-03-04T00:38:25;9.38;;;2.00;;
74471;SDS011;62920;53.572;10.050;2023-03-04T00:40:50;15.00;;;1.55;;
74471;SDS011;62920;53.572;10.050;2023-03-04T00:43:16;6.85;;;1.38;;
74471;SDS011;62920;53.572;10.050;2023-03-04T00:45:41;9.13;;;1.63;;
74471;SDS011;62920;53.572;10.050;2023-03-04T00:48:06;5.97;;;1.02;;
74471;SDS011;62920;53.572;10.050;2023-03-04T00:50:32;10.35;;;1.23;;
74471;SDS011;62920;53.572;10.050;2023-03-04T00:52:57;6.25;;;1.17;;
74471;SDS011;62920;53.572;10.050;2023-03-04T00:55:23;7.93;;;1.02;;
74471;SDS011;62920;53.572;10.050;2023-03-04T00:57:48;7.20;;;1.55;;
74471;SDS011;62920;53.572;10.050;2023-03-04T01:00:14;9.77;;;1.45;;
74471;SDS011;62920;53.572;10.050;2023-03-04T01:02:39;9.05;;;1.33;;
74471;SDS011;62920;53.572;10.050;2023-03-04T01:05:05;7.22;;;1.10;;
74471;SDS011;62920;53.572;10.050;2023-03-04T01:07:31;4.32;;;0.98;;
74471;SDS011;62920;53.572;10.050;2023-03-04T01:09:56;11.85;;;1.20;;
74471;SDS011;62920;53.572;10.050;2023-03-04T01:12:22;6.07;;;1.15;;
74471;SDS011;62920;53.572;10.050;2023-03-04T01:14:47;5.05;;;0.73;;
74471;SDS011;62920;53.572;10.050;2023-03-04T01:17:13;9.07;;;1.65;;
74471;SDS011;62920;53.572;10.050;2023-03-04T01:19:38;5.50;;;0.90;;
74471;SDS011;62920;53.572;10.050;2023-03-04T01:22:03;5.05;;;0.88;;
74471;SDS011;62920;53.572;10.050;2023-03-04T01:24:29;4.30;;;0.63;;
74471;SDS011;62920;53.572;10.050;2023-03-04T01:26:55;10.15;;;1.38;;
74471;SDS011;62920;53.572;10.050;2023-03-04T01:29:21;5.38;;;1.50;;
74471;SDS011;62920;53.572;10.050;2023-03-04T01:31:46;11.20;;;1.00;;
74471;SDS011;62920;53.572;10.050;2023-03-04T01:34:12;7.60;;;0.63;;
74471;SDS011;62920;53.572;10.050;2023-03-04T01:36:37;8.98;;;1.10;;
74471;SDS011;62920;53.572;10.050;2023-03-04T01:39:03;7.35;;;0.88;;
74471;SDS011;62920;53.572;10.050;2023-03-04T01:41:28;5.53;;;1.00;;
74471;SDS011;62920;53.572;10.050;2023-03-04T01:43:57;6.80;;;0.93;;
74471;SDS011;62920;53.572;10.050;2023-03-04T01:46:26;6.50;;;0.60;;
74471;SDS011;62920;53.572;10.050;2023-03-04T01:48:51;4.80;;;0.80;;
74471;SDS011;62920;53.572;10.050;2023-03-04T01:51:17;4.10;;;0.65;;
74471;SDS011;62920;53.572;10.050;2023-03-04T02:01:50;8.07;;;0.98;;
74471;SDS011;62920;53.572;10.050;2023-03-04T02:04:16;3.95;;;0.75;;
74471;SDS011;62920;53.572;10.050;2023-03-04T02:09:08;7.78;;;0.98;;
74471;SDS011;62920;53.572;10.050;2023-03-04T02:11:34;6.95;;;0.75;;
74471;SDS011;62920;53.572;10.050;2023-03-04T02:14:00;7.03;;;0.90;;
74471;SDS011;62920;53.572;10.050;2023-03-04T02:16:25;4.40;;;0.75;;
74471;SDS011;62920;53.572;10.050;2023-03-04T02:18:51;11.40;;;0.93;;
74471;SDS011;62920;53.572;10.050;2023-03-04T02:21:23;7.72;;;0.80;;
74471;SDS011;62920;53.572;10.050;2023-03-04T02:23:54;4.68;;;0.77;;
74471;SDS011;62920;53.572;10.050;2023-03-04T02:26:25;6.28;;;0.88;;
74471;SDS011;62920;53.572;10.050;2023-03-04T02:28:52;6.22;;;0.80;;
74471;SDS011;62920;53.572;10.050;2023-03-04T02:31:21;6.90;;;0.60;;
74471;SDS011;62920;53.572;10.050;2023-03-04T02:33:53;5.38;;;0.55;;
74471;SDS011;62920;53.572;10.050;2023-03-04T02:36:20;9.50;;;1.00;;
74471;SDS011;62920;53.572;10.050;2023-03-04T02:38:46;9.23;;;1.05;;
74471;SDS011;62920;53.572;10.050;2023-03-04T02:41:14;5.82;;;0.85;;
74471;SDS011;62920;53.572;10.050;2023-03-04T02:43:42;6.03;;;0.70;;
74471;SDS011;62920;53.572;10.050;2023-03-04T02:46:09;7.18;;;0.73;;
74471;SDS011;62920;53.572;10.050;2023-03-04T02:48:36;4.72;;;0.82;;
74471;SDS011;62920;53.572;10.050;2023-03-04T02:51:02;9.63;;;1.25;;
74471;SDS011;62920;53.572;10.050;2023-03-04T02:53:27;5.53;;;1.10;;
74471;SDS011;62920;53.572;10.050;2023-03-04T02:55:52;13.50;;;1.63;;
74471;SDS011;62920;53.572;10.050;2023-03-04T02:58:18;5.47;;;0.65;;
74471;SDS011;62920;53.572;10.050;2023-03-04T03:00:43;10.10;;;1.20;;
74471;SDS011;62920;53.572;10.050;2023-03-04T03:03:09;4.57;;;0.88;;
74471;SDS011;62920;53.572;10.050;2023-03-04T03:05:35;7.00;;;1.58;;
74471;SDS011;62920;53.572;10.050;2023-03-04T03:08:01;8.15;;;0.88;;
74471;SDS011;62920;53.572;10.050;2023-03-04T03:10:26;6.15;;;0.80;;
74471;SDS011;62920;53.572;10.050;2023-03-04T03:12:52;8.45;;;1.02;;
74471;SDS011;62920;53.572;10.050;2023-03-04T03:15:18;5.97;;;1.05;;
74471;SDS011;62920;53.572;10.050;2023-03-04T03:17:43;3.17;;;0.90;;
74471;SDS011;62920;53.572;10.050;2023-03-04T03:20:09;5.25;;;1.08;;
74471;SDS011;62920;53.572;10.050;2023-03-04T03:25:01;6.50;;;0.93;;
74471;SDS011;62920;53.572;10.050;2023-03-04T03:27:27;10.00;;;1.45;;
74471;SDS011;62920;53.572;10.050;2023-03-04T03:29:52;5.63;;;1.10;;
74471;SDS011;62920;53.572;10.050;2023-03-04T03:32:18;8.60;;;1.27;;
74471;SDS011;62920;53.572;10.050;2023-03-04T03:34:43;8.95;;;1.05;;
74471;SDS011;62920;53.572;10.050;2023-03-04T03:37:08;8.48;;;1.00;;
74471;SDS011;62920;53.572;10.050;2023-03-04T03:39:34;13.15;;;1.35;;
74471;SDS011;62920;53.572;10.050;2023-03-04T03:41:59;8.63;;;0.80;;
74471;SDS011;62920;53.572;10.050;2023-03-04T03:44:25;9.18;;;0.70;;
74471;SDS011;62920;53.572;10.050;2023-03-04T03:46:50;4.88;;;1.00;;
74471;SDS011;62920;53.572;10.050;2023-03-04T03:49:15;6.80;;;0.90;;
74471;SDS011;62920;53.572;10.050;2023-03-04T03:51:41;6.25;;;0.85;;
74471;SDS011;62920;53.572;10.050;2023-03-04T03:54:07;6.40;;;0.88;;
74471;SDS011;62920;53.572;10.050;2023-03-04T03:56:32;5.60;;;0.70;;
74471;SDS011;62920;53.572;10.050;2023-03-04T03:58:58;9.80;;;0.85;;
74471;SDS011;62920;53.572;10.050;2023-03-04T04:01:23;5.93;;;0.77;;
74471;SDS011;62920;53.572;10.050;2023-03-04T04:03:49;6.35;;;0.88;;
74471;SDS011;62920;53.572;10.050;2023-03-04T04:06:14;4.25;;;0.70;;
74471;SDS011;62920;53.572;10.050;2023-03-04T04:08:40;5.75;;;1.08;;
74471;SDS011;62920;53.572;10.050;2023-03-04T04:11:05;9.18;;;1.17;;
74471;SDS011;62920;53.572;10.050;2023-03-04T04:13:32;9.32;;;1.00;;
74471;SDS011;62920;53.572;10.050;2023-03-04T04:15:58;8.63;;;1.20;;
74471;SDS011;62920;53.572;10.050;2023-03-04T04:18:23;8.85;;;1.00;;
74471;SDS011;62920;53.572;10.050;2023-03-04T04:20:50;6.28;;;1.17;;
74471;SDS011;62920;53.572;10.050;2023-03-04T04:23:17;8.38;;;1.25;;
74471;SDS011;62920;53.572;10.050;2023-03-04T04:25:42;6.78;;;1.05;;
74471;SDS011;62920;53.572;10.050;2023-03-04T04:28:08;9.65;;;1.33;;
74471;SDS011;62920;53.572;10.050;2023-03-04T04:30:33;6.10;;;1.20;;
74471;SDS011;62920;53.572;10.050;2023-03-04T04:32:59;8.80;;;1.40;;
74471;SDS011;62920;53.572;10.050;2023-03-04T04:35:26;7.55;;;1.42;;
74471;SDS011;62920;53.572;10.050;2023-03-04T04:37:52;6.18;;;1.30;;
74471;SDS011;62920;53.572;10.050;2023-03-04T04:40:17;7.95;;;1.10;;
74471;SDS011;62920;53.572;10.050;2023-03-04T04:42:43;6.47;;;1.20;;
74471;SDS011;62920;53.572;10.050;2023-03-04T04:45:08;7.20;;;1.75;;
74471;SDS011;62920;53.572;10.050;2023-03-04T04:47:34;7.32;;;1.48;;
74471;SDS011;62920;53.572;10.050;2023-03-04T04:49:59;7.88;;;1.45;;
74471;SDS011;62920;53.572;10.050;2023-03-04T04:52:24;11.25;;;1.42;;
74471;SDS011;62920;53.572;10.050;2023-03-04T04:54:50;5.18;;;1.15;;
74471;SDS011;62920;53.572;10.050;2023-03-04T04:57:15;6.50;;;1.05;;
74471;SDS011;62920;53.572;10.050;2023-03-04T04:59:40;7.28;;;1.30;;
74471;SDS011;62920;53.572;10.050;2023-03-04T05:02:06;8.95;;;1.20;;
74471;SDS011;62920;53.572;10.050;2023-03-04T05:04:31;5.57;;;1.05;;
74471;SDS011;62920;53.572;10.050;2023-03-04T05:06:57;10.32;;;1.35;;
74471;SDS011;62920;53.572;10.050;2023-03-04T05:09:22;9.13;;;1.65;;
74471;SDS011;62920;53.572;10.050;2023-03-04T05:11:48;9.48;;;1.23;;
74471;SDS011;62920;53.572;10.050;2023-03-04T05:14:13;4.93;;;1.25;;
74471;SDS011;62920;53.572;10.050;2023-03-04T05:16:38;6.32;;;1.25;;
74471;SDS011;62920;53.572;10.050;2023-03-04T05:19:05;12.55;;;2.10;;
74471;SDS011;62920;53.572;10.050;2023-03-04T05:21:31;6.85;;;1.15;;
74471;SDS011;62920;53.572;10.050;2023-03-04T05:23:56;9.15;;;1.30;;
74471;SDS011;62920;53.572;10.050;2023-03-04T05:26:21;5.47;;;0.90;;
74471;SDS011;62920;53.572;10.050;2023-03-04T05:28:47;11.20;;;1.00;;
74471;SDS011;62920;53.572;10.050;2023-03-04T05:31:12;8.80;;;1.00;;
74471;SDS011;62920;53.572;10.050;2023-03-04T05:33:38;5.32;;;0.80;;
74471;SDS011;62920;53.572;10.050;2023-03-04T05:36:04;4.43;;;1.02;;
74471;SDS011;62920;53.572;10.050;2023-03-04T05:38:30;7.53;;;1.25;;
74471;SDS011;62920;53.572;10.050;2023-03-04T05:41:00;8.70;;;1.17;;
74471;SDS011;62920;53.572;10.050;2023-03-04T05:43:28;7.57;;;1.33;;
74471;SDS011;62920;53.572;10.050;2023-03-04T05:45:53;6.78;;;1.48;;
74471;SDS011;62920;53.572;10.050;2023-03-04T05:48:20;6.35;;;1.15;;
74471;SDS011;62920;53.572;10.050;2023-03-04T05:50:46;11.95;;;1.52;;
74471;SDS011;62920;53.572;10.050;2023-03-04T05:53:11;10.27;;;1.30;;
74471;SDS011;62920;53.572;10.050;2023-03-04T05:55:37;10.70;;;1.63;;
74471;SDS011;62920;53.572;10.050;2023-03-04T05:58:02;8.90;;;1.67;;
74471;SDS011;62920;53.572;10.050;2023-03-04T06:00:28;7.35;;;1.50;;
74471;SDS011;62920;53.572;10.050;2023-03-04T06:02:54;15.73;;;1.67;;
74471;SDS011;62920;53.572;10.050;2023-03-04T06:05:19;9.02;;;1.77;;
74471;SDS011;62920;53.572;10.050;2023-03-04T06:07:45;10.93;;;1.33;;
74471;SDS011;62920;53.572;10.050;2023-03-04T06:10:12;9.73;;;1.38;;
74471;SDS011;62920;53.572;10.050;2023-03-04T06:12:39;12.25;;;1.70;;
74471;SDS011;62920;53.572;10.050;2023-03-04T06:15:05;16.67;;;1.88;;
74471;SDS011;62920;53.572;10.050;2023-03-04T06:17:31;16.30;;;1.75;;
74471;SDS011;62920;53.572;10.050;2023-03-04T06:19:56;13.18;;;1.95;;
74471;SDS011;62920;53.572;10.050;2023-03-04T06:22:22;8.48;;;1.67;;
74471;SDS011;62920;53.572;10.050;2023-03-04T06:24:47;12.50;;;1.75;;
74471;SDS011;62920;53.572;10.050;2023-03-04T06:27:12;13.13;;;2.45;;
74471;SDS011;62920;53.572;10.050;2023-03-04T06:29:38;14.15;;;2.17;;
74471;SDS011;62920;53.572;10.050;2023-03-04T06:32:03;12.02;;;1.83;;
74471;SDS011;62920;53.572;10.050;2023-03-04T06:34:29;16.73;;;1.88;;
74471;SDS011;62920;53.572;10.050;2023-03-04T06:36:55;20.88;;;1.80;;
74471;SDS011;62920;53.572;10.050;2023-03-04T06:39:20;13.68;;;1.70;;
74471;SDS011;62920;53.572;10.050;2023-03-04T06:41:46;8.52;;;1.50;;
74471;SDS011;62920;53.572;10.050;2023-03-04T06:44:11;13.55;;;1.75;;
74471;SDS011;62920;53.572;10.050;2023-03-04T06:46:36;11.98;;;1.98;;
74471;SDS011;62920;53.572;10.050;2023-03-04T06:49:02;12.52;;;2.17;;
74471;SDS011;62920;53.572;10.050;2023-03-04T06:51:27;9.07;;;0.98;;
74471;SDS011;62920;53.572;10.050;2023-03-04T06:53:53;10.43;;;1.50;;
74471;SDS011;62920;53.572;10.050;2023-03-04T06:56:18;13.60;;;2.17;;
74471;SDS011;62920;53.572;10.050;2023-03-04T06:58:44;11.68;;;1.38;;
74471;SDS011;62920;53.572;10.050;2023-03-04T07:01:19;13.65;;;1.65;;
74471;SDS011;62920;53.572;10.050;2023-03-04T07:03:47;10.85;;;1.38;;
74471;SDS011;62920;53.572;10.050;2023-03-04T07:06:13;6.78;;;1.10;;
74471;SDS011;62920;53.572;10.050;2023-03-04T07:08:40;16.80;;;1.33;;
74471;SDS011;62920;53.572;10.050;2023-03-04T07:11:05;8.70;;;1.35;;
74471;SDS011;62920;53.572;10.050;2023-03-04T07:13:31;10.02;;;1.10;;
74471;SDS011;62920;53.572;10.050;2023-03-04T07:18:23;8.20;;;0.75;;
74471;SDS011;62920;53.572;10.050;2023-03-04T07:20:51;9.50;;;1.20;;
74471;SDS011;62920;53.572;10.050;2023-03-04T07:23:17;10.95;;;1.42;;
74471;SDS011;62920;53.572;10.050;2023-03-04T07:25:43;7.22;;;0.98;;
74471;SDS011;62920;53.572;10.050;2023-03-04T07:28:08;9.98;;;1.25;;
74471;SDS011;62920;53.572;10.050;2023-03-04T07:30:34;9.85;;;1.10;;
74471;SDS011;62920;53.572;10.050;2023-03-04T07:32:59;16.63;;;1.23;;
74471;SDS011;62920;53.572;10.050;2023-03-04T07:35:24;7.82;;;1.05;;
74471;SDS011;62920;53.572;10.050;2023-03-04T07:37:49;8.80;;;1.35;;
74471;SDS011;62920;53.572;10.050;2023-03-04T07:40:15;12.70;;;1.40;;
74471;SDS011;62920;53.572;10.050;2023-03-04T07:42:40;6.70;;;1.08;;
74471;SDS011;62920;53.572;10.050;2023-03-04T07:45:06;6.18;;;0.95;;
74471;SDS011;62920;53.572;10.050;2023-03-04T07:47:32;8.93;;;1.20;;
74471;SDS011;62920;53.572;10.050;2023-03-04T07:49:58;11.00;;;1.58;;
74471;SDS011;62920;53.572;10.050;2023-03-04T07:52:23;13.63;;;1.42;;
74471;SDS011;62920;53.572;10.050;2023-03-04T07:54:48;10.20;;;1.13;;
74471;SDS011;62920;53.572;10.050;2023-03-04T07:57:14;11.52;;;1.67;;
74471;SDS011;62920;53.572;10.050;2023-03-04T07:59:39;9.23;;;1.52;;
74471;SDS011;62920;53.572;10.050;2023-03-04T08:02:04;9.65;;;1.55;;
74471;SDS011;62920;53.572;10.050;2023-03-04T08:04:30;17.27;;;2.22;;
74471;SDS011;62920;53.572;10.050;2023-03-04T08:06:55;10.48;;;1.33;;
74471;SDS011;62920;53.572;10.050;2023-03-04T08:09:21;9.52;;;1.52;;
74471;SDS011;62920;53.572;10.050;2023-03-04T08:11:46;16.30;;;2.35;;
74471;SDS011;62920;53.572;10.050;2023-03-04T08:14:12;14.15;;;2.22;;
74471;SDS011;62920;53.572;10.050;2023-03-04T08:16:38;10.30;;;1.45;;
74471;SDS011;62920;53.572;10.050;2023-03-04T08:19:03;11.60;;;1.63;;
74471;SDS011;62920;53.572;10.050;2023-03-04T08:21:29;11.30;;;1.58;;
74471;SDS011;62920;53.572;10.050;2023-03-04T08:23:56;18.10;;;2.15;;
74471;SDS011;62920;53.572;10.050;2023-03-04T08:26:24;15.05;;;1.35;;
74471;SDS011;62920;53.572;10.050;2023-03-04T08:28:52;11.93;;;1.52;;
74471;SDS011;62920;53.572;10.050;2023-03-04T08:31:18;15.75;;;1.80;;
74471;SDS011;62920;53.572;10.050;2023-03-04T08:33:44;19.95;;;1.70;;
74471;SDS011;62920;53.572;10.050;2023-03-04T08:36:10;16.80;;;2.42;;
74471;SDS011;62920;53.572;10.050;2023-03-04T08:38:36;16.48;;;2.63;;
74471;SDS011;62920;53.572;10.050;2023-03-04T08:41:02;12.40;;;1.83;;
74471;SDS011;62920;53.572;10.050;2023-03-04T08:43:28;17.95;;;2.50;;
74471;SDS011;62920;53.572;10.050;2023-03-04T08:45:53;14.48;;;1.90;;
74471;SDS011;62920;53.572;10.050;2023-03-04T08:48:19;10.27;;;2.03;;
74471;SDS011;62920;53.572;10.050;2023-03-04T08:50:45;10.27;;;1.58;;
74471;SDS011;62920;53.572;10.050;2023-03-04T08:53:11;11.07;;;1.38;;
74471;SDS011;62920;53.572;10.050;2023-03-04T08:55:38;17.40;;;2.25;;
74471;SDS011;62920;53.572;10.050;2023-03-04T08:58:04;30.77;;;2.33;;
74471;SDS011;62920;53.572;10.050;2023-03-04T09:00:29;9.77;;;1.80;;
74471;SDS011;62920;53.572;10.050;2023-03-04T09:02:55;12.98;;;2.03;;
74471;SDS011;62920;53.572;10.050;2023-03-04T09:05:20;17.63;;;2.25;;
74471;SDS011;62920;53.572;10.050;2023-03-04T09:07:46;11.60;;;1.58;;
74471;SDS011;62920;53.572;10.050;2023-03-04T09:10:11;18.10;;;1.67;;
74471;SDS011;62920;53.572;10.050;2023-03-04T09:12:37;15.45;;;1.67;;
74471;SDS011;62920;53.572;10.050;2023-03-04T09:15:03;12.20;;;2.13;;
74471;SDS011;62920;53.572;10.050;2023-03-04T09:17:29;13.65;;;2.03;;
74471;SDS011;62920;53.572;10.050;2023-03-04T09:19:55;11.20;;;1.48;;
74471;SDS011;62920;53.572;10.050;2023-03-04T09:22:21;13.05;;;1.58;;
74471;SDS011;62920;53.572;10.050;2023-03-04T09:24:46;17.73;;;2.10;;
74471;SDS011;62920;53.572;10.050;2023-03-04T09:27:11;15.20;;;2.13;;
74471;SDS011;62920;53.572;10.050;2023-03-04T09:29:37;17.77;;;2.22;;
74471;SDS011;62920;53.572;10.050;2023-03-04T09:32:02;10.02;;;2.05;;
74471;SDS011;62920;53.572;10.050;2023-03-04T09:34:27;18.60;;;1.92;;
74471;SDS011;62920;53.572;10.050;2023-03-04T09:36:53;12.70;;;1.50;;
74471;SDS011;62920;53.572;10.050;2023-03-04T09:39:18;15.38;;;1.48;;
74471;SDS011;62920;53.572;10.050;2023-03-04T09:41:51;11.32;;;2.08;;
74471;SDS011;62920;53.572;10.050;2023-03-04T09:46:53;15.38;;;2.28;;
74471;SDS011;62920;53.572;10.050;2023-03-04T09:49:23;9.27;;;1.48;;
74471;SDS011;62920;53.572;10.050;2023-03-04T09:51:54;14.80;;;2.92;;
74471;SDS011;62920;53.572;10.050;2023-03-04T09:58:02;7.28;;;1.40;;
74471;SDS011;62920;53.572;10.050;2023-03-04T10:00:32;15.25;;;1.58;;
74471;SDS011;62920;53.572;10.050;2023-03-04T10:08:31;11.93;;;1.80;;
74471;SDS011;62920;53.572;10.050;2023-03-04T10:11:01;15.65;;;1.63;;
74471;SDS011;62920;53.572;10.050;2023-03-04T10:13:30;14.07;;;2.45;;
74471;SDS011;62920;53.572;10.050;2023-03-04T10:16:01;18.83;;;2.15;;
74471;SDS011;62920;53.572;10.050;2023-03-04T10:18:29;18.90;;;2.47;;
74471;SDS011;62920;53.572;10.050;2023-03-04T10:21:18;13.30;;;1.90;;
74471;SDS011;62920;53.572;10.050;2023-03-04T10:23:50;12.35;;;1.95;;
74471;SDS011;62920;53.572;10.050;2023-03-04T10:26:18;21.55;;;1.90;;
74471;SDS011;62920;53.572;10.050;2023-03-04T10:31:20;10.05;;;1.85;;
74471;SDS011;62920;53.572;10.050;2023-03-04T10:33:54;16.70;;;1.85;;
74471;SDS011;62920;53.572;10.050;2023-03-04T10:38:56;14.40;;;2.00;;
74471;SDS011;62920;53.572;10.050;2023-03-04T10:41:23;9.50;;;1.67;;
74471;SDS011;62920;53.572;10.050;2023-03-04T10:43:59;11.75;;;2.22;;
74471;SDS011;62920;53.572;10.050;2023-03-04T10:46:27;17.42;;;2.13;;
74471;SDS011;62920;53.572;10.050;2023-03-04T10:48:53;18.33;;;2.80;;
74471;SDS011;62920;53.572;10.050;2023-03-04T10:51:20;14.48;;;2.13;;
74471;SDS011;62920;53.572;10.050;2023-03-04T10:54:09;16.13;;;1.80;;
74471;SDS011;62920;53.572;10.050;2023-03-04T10:56:52;11.02;;;1.70;;
74471;SDS011;62920;53.572;10.050;2023-03-04T10:59:32;14.95;;;2.22;;
74471;SDS011;62920;53.572;10.050;2023-03-04T11:02:17;15.20;;;2.03;;
74471;SDS011;62920;53.572;10.050;2023-03-04T11:04:49;10.57;;;1.73;;
74471;SDS011;62920;53.572;10.050;2023-03-04T11:07:17;17.15;;;2.00;;
74471;SDS011;62920;53.572;10.050;2023-03-04T11:09:43;10.13;;;1.40;;
74471;SDS011;62920;53.572;10.050;2023-03-04T11:12:11;12.35;;;2.03;;
74471;SDS011;62920;53.572;10.050;2023-03-04T11:14:45;12.75;;;2.08;;
74471;SDS011;62920;53.572;10.050;2023-03-04T11:17:16;9.18;;;1.45;;
74471;SDS011;62920;53.572;10.050;2023-03-04T11:19:46;13.65;;;1.70;;
74471;SDS011;62920;53.572;10.050;2023-03-04T11:22:15;16.50;;;2.00;;
74471;SDS011;62920;53.572;10.050;2023-03-04T11:24:43;17.88;;;2.05;;
74471;SDS011;62920;53.572;10.050;2023-03-04T11:27:17;14.32;;;1.80;;
74471;SDS011;62920;53.572;10.050;2023-03-04T11:32:50;7.70;;;1.60;;
74471;SDS011;62920;53.572;10.050;2023-03-04T11:38:17;15.13;;;1.73;;
74471;SDS011;62920;53.572;10.050;2023-03-04T11:40:51;9.95;;;1.73;;
74471;SDS011;62920;53.572;10.050;2023-03-04T11:43:28;13.45;;;1.63;;
74471;SDS011;62920;53.572;10.050;2023-03-04T11:46:04;14.60;;;1.58;;
74471;SDS011;62920;53.572;10.050;2023-03-04T11:51:40;11.02;;;1.80;;
74471;SDS011;62920;53.572;10.050;2023-03-04T12:05:57;9.32;;;1.88;;
74471;SDS011;62920;53.572;10.050;2023-03-04T12:11:48;16.88;;;1.98;;
74471;SDS011;62920;53.572;10.050;2023-03-04T12:14:21;16.60;;;2.00;;
74471;SDS011;62920;53.572;10.050;2023-03-04T12:44:17;14.27;;;1.92;;
74471;SDS011;62920;53.572;10.050;2023-03-04T12:46:45;11.75;;;1.55;;
74471;SDS011;62920;53.572;10.050;2023-03-04T12:55:16;10.75;;;1.60;;
74471;SDS011;62920;53.572;10.050;2023-03-04T12:57:43;8.63;;;1.40;;
74471;SDS011;62920;53.572;10.050;2023-03-04T13:02:50;11.77;;;1.80;;
74471;SDS011;62920;53.572;10.050;2023-03-04T13:05:41;11.38;;;1.55;;
74471;SDS011;62920;53.572;10.050;2023-03-04T13:10:46;8.82;;;1.52;;
74471;SDS011;62920;53.572;10.050;2023-03-04T13:16:04;10.50;;;1.85;;
74471;SDS011;62920;53.572;10.050;2023-03-04T13:18:53;9.23;;;1.75;;
74471;SDS011;62920;53.572;10.050;2023-03-04T13:21:20;10.65;;;1.50;;
74471;SDS011;62920;53.572;10.050;2023-03-04T13:23:47;6.75;;;1.20;;
74471;SDS011;62920;53.572;10.050;2023-03-04T13:34:42;14.23;;;1.75;;
74471;SDS011;62920;53.572;10.050;2023-03-04T13:42:47;8.98;;;1.80;;
74471;SDS011;62920;53.572;10.050;2023-03-04T13:48:02;12.98;;;1.77;;
74471;SDS011;62920;53.572;10.050;2023-03-04T13:50:33;12.10;;;1.65;;
74471;SDS011;62920;53.572;10.050;2023-03-04T13:56:04;10.82;;;1.90;;
74471;SDS011;62920;53.572;10.050;2023-03-04T13:58:35;10.75;;;2.20;;
74471;SDS011;62920;53.572;10.050;2023-03-04T14:01:01;9.48;;;1.25;;
74471;SDS011;62920;53.572;10.050;2023-03-04T14:03:29;10.70;;;1.60;;
74471;SDS011;62920;53.572;10.050;2023-03-04T14:08:56;11.43;;;1.55;;
74471;SDS011;62920;53.572;10.050;2023-03-04T14:11:27;12.20;;;1.50;;
74471;SDS011;62920;53.572;10.050;2023-03-04T14:13:56;10.60;;;1.60;;
74471;SDS011;62920;53.572;10.050;2023-03-04T14:16:22;10.35;;;1.65;;
74471;SDS011;62920;53.572;10.050;2023-03-04T14:19:00;10.98;;;1.60;;
74471;SDS011;62920;53.572;10.050;2023-03-04T14:21:27;10.63;;;2.13;;
74471;SDS011;62920;53.572;10.050;2023-03-04T14:24:09;7.85;;;1.52;;
74471;SDS011;62920;53.572;10.050;2023-03-04T14:26:41;11.32;;;1.67;;
74471;SDS011;62920;53.572;10.050;2023-03-04T14:29:19;12.73;;;1.75;;
74471;SDS011;62920;53.572;10.050;2023-03-04T14:31:46;8.40;;;1.70;;
74471;SDS011;62920;53.572;10.050;2023-03-04T14:34:14;10.55;;;1.23;;
74471;SDS011;62920;53.572;10.050;2023-03-04T14:36:45;11.73;;;1.73;;
74471;SDS011;62920;53.572;10.050;2023-03-04T14:39:11;7.25;;;1.10;;
74471;SDS011;62920;53.572;10.050;2023-03-04T14:41:40;9.20;;;1.65;;
74471;SDS011;62920;53.572;10.050;2023-03-04T14:44:08;13.07;;;1.83;;
74471;SDS011;62920;53.572;10.050;2023-03-04T14:46:38;8.10;;;1.63;;
74471;SDS011;62920;53.572;10.050;2023-03-04T14:49:06;9.45;;;2.30;;
74471;SDS011;62920;53.572;10.050;2023-03-04T14:51:41;14.98;;;1.33;;
74471;SDS011;62920;53.572;10.050;2023-03-04T14:54:24;7.93;;;1.30;;
74471;SDS011;62920;53.572;10.050;2023-03-04T14:56:50;7.45;;;1.98;;
74471;SDS011;62920;53.572;10.050;2023-03-04T14:59:16;10.52;;;1.88;;
74471;SDS011;62920;53.572;10.050;2023-03-04T15:01:41;10.05;;;1.23;;
74471;SDS011;62920;53.572;10.050;2023-03-04T15:04:07;15.52;;;1.45;;
74471;SDS011;62920;53.572;10.050;2023-03-04T15:06:38;12.30;;;1.77;;
74471;SDS011;62920;53.572;10.050;2023-03-04T15:09:18;14.02;;;1.58;;
74471;SDS011;62920;53.572;10.050;2023-03-04T15:11:49;8.00;;;1.35;;
74471;SDS011;62920;53.572;10.050;2023-03-04T15:17:18;12.40;;;1.35;;
74471;SDS011;62920;53.572;10.050;2023-03-04T15:19:56;8.07;;;1.40;;
74471;SDS011;62920;53.572;10.050;2023-03-04T15:22:26;11.93;;;1.38;;
74471;SDS011;62920;53.572;10.050;2023-03-04T15:24:51;16.90;;;2.25;;
74471;SDS011;62920;53.572;10.050;2023-03-04T15:27:17;8.77;;;1.30;;
74471;SDS011;62920;53.572;10.050;2023-03-04T15:29:47;13.02;;;1.85;;
74471;SDS011;62920;53.572;10.050;2023-03-04T15:32:13;12.43;;;1.58;;
74471;SDS011;62920;53.572;10.050;2023-03-04T15:34:39;6.35;;;1.50;;
74471;SDS011;62920;53.572;10.050;2023-03-04T15:37:04;9.43;;;2.00;;
74471;SDS011;62920;53.572;10.050;2023-03-04T15:39:30;11.23;;;1.52;;
74471;SDS011;62920;53.572;10.050;2023-03-04T15:41:55;10.00;;;1.42;;
74471;SDS011;62920;53.572;10.050;2023-03-04T15:44:20;13.48;;;1.90;;
74471;SDS011;62920;53.572;10.050;2023-03-04T15:46:46;7.88;;;1.30;;
74471;SDS011;62920;53.572;10.050;2023-03-04T15:49:11;7.10;;;1.05;;
74471;SDS011;62920;53.572;10.050;2023-03-04T15:51:36;14.45;;;1.63;;
74471;SDS011;62920;53.572;10.050;2023-03-04T15:54:02;8.77;;;1.40;;
74471;SDS011;62920;53.572;10.050;2023-03-04T15:56:29;15.93;;;1.60;;
74471;SDS011;62920;53.572;10.050;2023-03-04T15:59:03;14.18;;;1.42;;
74471;SDS011;62920;53.572;10.050;2023-03-04T16:01:31;11.68;;;1.35;;
74471;SDS011;62920;53.572;10.050;2023-03-04T16:03:56;8.27;;;1.20;;
74471;SDS011;62920;53.572;10.050;2023-03-04T16:06:22;8.88;;;1.10;;
74471;SDS011;62920;53.572;10.050;2023-03-04T16:08:49;16.02;;;1.92;;
74471;SDS011;62920;53.572;10.050;2023-03-04T16:11:17;8.18;;;1.33;;
74471;SDS011;62920;53.572;10.050;2023-03-04T16:13:50;7.60;;;1.15;;
74471;SDS011;62920;53.572;10.050;2023-03-04T16:16:15;6.60;;;0.98;;
74471;SDS011;62920;53.572;10.050;2023-03-04T16:18:41;9.55;;;1.58;;
74471;SDS011;62920;53.572;10.050;2023-03-04T16:21:07;7.97;;;1.20;;
74471;SDS011;62920;53.572;10.050;2023-03-04T16:23:41;12.30;;;1.63;;
74471;SDS011;62920;53.572;10.050;2023-03-04T16:26:16;9.77;;;1.27;;
74471;SDS011;62920;53.572;10.050;2023-03-04T16:28:42;13.70;;;1.70;;
74471;SDS011;62920;53.572;10.050;2023-03-04T16:31:12;12.05;;;2.90;;
74471;SDS011;62920;53.572;10.050;2023-03-04T16:33:38;7.10;;;1.02;;